sensor_id;sensor_type;location;lat;lon;timestamp;temperature;humidity
47520;DHT22;33252;48.122;11.538;2023-12-20T00:00:22;6.20;87.90
47520;DHT22;33252;48.122;11.538;2023-12-20T00:02:48;6.20;88.20
47520;DHT22;33252;48.122;11.538;2023-12-20T00:05:14;6.20;88.10
47520;DHT22;33252;48.122;11.538;2023-12-20T00:07:40;6.20;88.30
47520;DHT22;33252;48.122;11.538;2023-12-20T00:10:05;6.20;88.30
47520;DHT22;33252;48.122;11.538;2023-12-20T00:12:31;6.20;88.70
47520;DHT22;33252;48.122;11.538;2023-12-20T00:14:57;6.10;89.00
47520;DHT22;33252;48.122;11.538;2023-12-20T00:17:23;6.20;89.20
47520;DHT22;33252;48.122;11.538;2023-12-20T00:19:48;6.20;89.30
47520;DHT22;33252;48.122;11.538;2023-12-20T00:22:14;6.10;89.40
47520;DHT22;33252;48.122;11.538;2023-12-20T00:24:39;6.10;89.60
47520;DHT22;33252;48.122;11.538;2023-12-20T00:27:05;6.20;89.60
47520;DHT22;33252;48.122;11.538;2023-12-20T00:29:30;6.20;89.50
47520;DHT22;33252;48.122;11.538;2023-12-20T00:31:56;6.20;89.10
47520;DHT22;33252;48.122;11.538;2023-12-20T00:34:21;6.20;89.30
47520;DHT22;33252;48.122;11.538;2023-12-20T00:36:47;6.30;87.60
47520;DHT22;33252;48.122;11.538;2023-12-20T00:39:12;6.40;87.80
47520;DHT22;33252;48.122;11.538;2023-12-20T00:41:38;6.40;86.60
47520;DHT22;33252;48.122;11.538;2023-12-20T00:44:04;6.40;86.60
47520;DHT22;33252;48.122;11.538;2023-12-20T00:46:30;6.50;87.10
47520;DHT22;33252;48.122;11.538;2023-12-20T00:48:55;6.50;86.50
47520;DHT22;33252;48.122;11.538;2023-12-20T00:51:21;6.60;84.90
47520;DHT22;33252;48.122;11.538;2023-12-20T00:53:48;6.60;84.60
47520;DHT22;33252;48.122;11.538;2023-12-20T00:56:14;6.60;84.80
47520;DHT22;33252;48.122;11.538;2023-12-20T00:58:40;6.60;84.30
47520;DHT22;33252;48.122;11.538;2023-12-20T01:01:05;6.60;84.00
47520;DHT22;33252;48.122;11.538;2023-12-20T01:03:31;6.70;84.40
47520;DHT22;33252;48.122;11.538;2023-12-20T01:05:56;6.70;84.20
47520;DHT22;33252;48.122;11.538;2023-12-20T01:08:22;6.70;84.40
47520;DHT22;33252;48.122;11.538;2023-12-20T01:10:48;6.70;84.80
47520;DHT22;33252;48.122;11.538;2023-12-20T01:13:13;6.60;85.00
47520;DHT22;33252;48.122;11.538;2023-12-20T01:15:39;6.60;85.30
47520;DHT22;33252;48.122;11.538;2023-12-20T01:18:04;6.60;85.20
47520;DHT22;33252;48.122;11.538;2023-12-20T01:20:30;6.60;85.30
47520;DHT22;33252;48.122;11.538;2023-12-20T01:22:55;6.60;85.30
47520;DHT22;33252;48.122;11.538;2023-12-20T01:25:21;6.60;85.70
47520;DHT22;33252;48.122;11.538;2023-12-20T01:27:46;6.60;85.70
47520;DHT22;33252;48.122;11.538;2023-12-20T01:30:12;6.60;86.30
47520;DHT22;33252;48.122;11.538;2023-12-20T01:32:38;6.60;86.30
47520;DHT22;33252;48.122;11.538;2023-12-20T01:35:03;6.60;86.40
47520;DHT22;33252;48.122;11.538;2023-12-20T01:37:29;6.60;86.70
47520;DHT22;33252;48.122;11.538;2023-12-20T01:39:54;6.60;87.10
47520;DHT22;33252;48.122;11.538;2023-12-20T01:42:20;6.60;87.30
47520;DHT22;33252;48.122;11.538;2023-12-20T01:44:47;6.60;87.40
47520;DHT22;33252;48.122;11.538;2023-12-20T01:47:13;6.60;87.30
47520;DHT22;33252;48.122;11.538;2023-12-20T01:49:39;6.60;88.00
47520;DHT22;33252;48.122;11.538;2023-12-20T01:52:05;6.60;87.30
47520;DHT22;33252;48.122;11.538;2023-12-20T01:54:31;6.60;87.20
47520;DHT22;33252;48.122;11.538;2023-12-20T01:56:57;6.70;87.10
47520;DHT22;33252;48.122;11.538;2023-12-20T01:59:22;6.70;87.50
47520;DHT22;33252;48.122;11.538;2023-12-20T02:01:48;6.70;87.20
47520;DHT22;33252;48.122;11.538;2023-12-20T02:04:14;6.70;86.90
47520;DHT22;33252;48.122;11.538;2023-12-20T02:06:40;6.70;86.70
47520;DHT22;33252;48.122;11.538;2023-12-20T02:09:06;6.70;86.70
47520;DHT22;33252;48.122;11.538;2023-12-20T02:11:33;6.80;86.70
47520;DHT22;33252;48.122;11.538;2023-12-20T02:13:58;6.80;86.70
47520;DHT22;33252;48.122;11.538;2023-12-20T02:16:24;6.80;86.90
47520;DHT22;33252;48.122;11.538;2023-12-20T02:18:50;6.80;87.10
47520;DHT22;33252;48.122;11.538;2023-12-20T02:21:15;6.80;87.80
47520;DHT22;33252;48.122;11.538;2023-12-20T02:23:41;6.80;87.60
47520;DHT22;33252;48.122;11.538;2023-12-20T02:26:07;6.80;87.60
47520;DHT22;33252;48.122;11.538;2023-12-20T02:28:33;6.90;87.90
47520;DHT22;33252;48.122;11.538;2023-12-20T02:30:58;6.90;87.70
47520;DHT22;33252;48.122;11.538;2023-12-20T02:33:24;6.90;88.00
47520;DHT22;33252;48.122;11.538;2023-12-20T02:35:49;7.00;88.20
47520;DHT22;33252;48.122;11.538;2023-12-20T02:38:15;7.00;88.60
47520;DHT22;33252;48.122;11.538;2023-12-20T02:40:41;7.00;88.80
47520;DHT22;33252;48.122;11.538;2023-12-20T02:43:06;7.10;89.20
47520;DHT22;33252;48.122;11.538;2023-12-20T02:45:32;7.00;89.60
47520;DHT22;33252;48.122;11.538;2023-12-20T02:47:57;7.00;89.80
47520;DHT22;33252;48.122;11.538;2023-12-20T02:50:23;7.00;89.90
47520;DHT22;33252;48.122;11.538;2023-12-20T02:52:48;7.00;90.10
47520;DHT22;33252;48.122;11.538;2023-12-20T02:55:14;7.10;90.10
47520;DHT22;33252;48.122;11.538;2023-12-20T02:57:39;7.00;90.10
47520;DHT22;33252;48.122;11.538;2023-12-20T03:00:09;7.00;90.20
47520;DHT22;33252;48.122;11.538;2023-12-20T03:02:36;7.10;90.40
47520;DHT22;33252;48.122;11.538;2023-12-20T03:05:02;7.00;90.40
47520;DHT22;33252;48.122;11.538;2023-12-20T03:07:27;7.00;90.50
47520;DHT22;33252;48.122;11.538;2023-12-20T03:09:53;7.00;90.60
47520;DHT22;33252;48.122;11.538;2023-12-20T03:12:18;7.00;90.80
47520;DHT22;33252;48.122;11.538;2023-12-20T03:14:44;7.00;91.10
47520;DHT22;33252;48.122;11.538;2023-12-20T03:17:10;7.00;91.10
47520;DHT22;33252;48.122;11.538;2023-12-20T03:19:35;7.10;91.40
47520;DHT22;33252;48.122;11.538;2023-12-20T03:22:01;7.00;91.60
47520;DHT22;33252;48.122;11.538;2023-12-20T03:24:27;7.10;91.90
47520;DHT22;33252;48.122;11.538;2023-12-20T03:26:52;7.00;92.10
47520;DHT22;33252;48.122;11.538;2023-12-20T03:29:18;7.00;92.30
47520;DHT22;33252;48.122;11.538;2023-12-20T03:31:44;7.10;92.60
47520;DHT22;33252;48.122;11.538;2023-12-20T03:34:09;7.00;92.80
47520;DHT22;33252;48.122;11.538;2023-12-20T03:36:35;7.00;93.00
47520;DHT22;33252;48.122;11.538;2023-12-20T03:39:01;7.00;93.30
47520;DHT22;33252;48.122;11.538;2023-12-20T03:41:26;7.00;93.50
47520;DHT22;33252;48.122;11.538;2023-12-20T03:43:52;7.10;93.90
47520;DHT22;33252;48.122;11.538;2023-12-20T03:46:17;7.00;94.10
47520;DHT22;33252;48.122;11.538;2023-12-20T03:48:43;7.00;94.40
47520;DHT22;33252;48.122;11.538;2023-12-20T03:51:08;7.00;94.70
47520;DHT22;33252;48.122;11.538;2023-12-20T03:53:34;7.00;95.30
47520;DHT22;33252;48.122;11.538;2023-12-20T03:55:59;6.90;95.40
47520;DHT22;33252;48.122;11.538;2023-12-20T03:58:25;6.90;95.70
47520;DHT22;33252;48.122;11.538;2023-12-20T04:00:50;6.90;96.10
47520;DHT22;33252;48.122;11.538;2023-12-20T04:03:16;6.90;96.40
47520;DHT22;33252;48.122;11.538;2023-12-20T04:05:41;6.80;97.00
47520;DHT22;33252;48.122;11.538;2023-12-20T04:08:07;6.80;97.50
47520;DHT22;33252;48.122;11.538;2023-12-20T04:10:33;6.80;97.70
47520;DHT22;33252;48.122;11.538;2023-12-20T04:12:58;6.70;98.00
47520;DHT22;33252;48.122;11.538;2023-12-20T04:15:24;6.70;98.30
47520;DHT22;33252;48.122;11.538;2023-12-20T04:17:49;6.60;98.60
47520;DHT22;33252;48.122;11.538;2023-12-20T04:20:15;6.50;98.90
47520;DHT22;33252;48.122;11.538;2023-12-20T04:22:40;6.60;99.20
47520;DHT22;33252;48.122;11.538;2023-12-20T04:25:06;6.50;99.50
47520;DHT22;33252;48.122;11.538;2023-12-20T04:27:31;6.40;99.90
47520;DHT22;33252;48.122;11.538;2023-12-20T04:29:57;6.40;99.90
47520;DHT22;33252;48.122;11.538;2023-12-20T04:32:22;6.40;99.90
47520;DHT22;33252;48.122;11.538;2023-12-20T04:34:48;6.40;99.90
47520;DHT22;33252;48.122;11.538;2023-12-20T04:37:13;6.40;99.90
47520;DHT22;33252;48.122;11.538;2023-12-20T04:39:39;6.30;99.90
47520;DHT22;33252;48.122;11.538;2023-12-20T04:42:06;6.30;99.90
47520;DHT22;33252;48.122;11.538;2023-12-20T04:44:32;6.30;99.90
47520;DHT22;33252;48.122;11.538;2023-12-20T04:46:57;6.30;99.90
47520;DHT22;33252;48.122;11.538;2023-12-20T04:49:23;6.40;99.90
47520;DHT22;33252;48.122;11.538;2023-12-20T04:51:48;6.30;99.90
47520;DHT22;33252;48.122;11.538;2023-12-20T04:54:14;6.30;99.90
47520;DHT22;33252;48.122;11.538;2023-12-20T04:56:40;6.20;99.90
47520;DHT22;33252;48.122;11.538;2023-12-20T04:59:05;6.20;99.90
47520;DHT22;33252;48.122;11.538;2023-12-20T05:01:31;6.20;99.90
47520;DHT22;33252;48.122;11.538;2023-12-20T05:03:56;6.10;99.90
47520;DHT22;33252;48.122;11.538;2023-12-20T05:06:22;6.00;99.90
47520;DHT22;33252;48.122;11.538;2023-12-20T05:08:47;5.90;99.90
47520;DHT22;33252;48.122;11.538;2023-12-20T05:11:13;5.90;99.90
47520;DHT22;33252;48.122;11.538;2023-12-20T05:13:40;5.80;99.90
47520;DHT22;33252;48.122;11.538;2023-12-20T05:16:06;5.70;99.90
47520;DHT22;33252;48.122;11.538;2023-12-20T05:18:31;5.70;99.90
47520;DHT22;33252;48.122;11.538;2023-12-20T05:20:57;5.70;99.90
47520;DHT22;33252;48.122;11.538;2023-12-20T05:23:22;5.60;99.90
47520;DHT22;33252;48.122;11.538;2023-12-20T05:25:48;5.50;99.90
47520;DHT22;33252;48.122;11.538;2023-12-20T05:28:14;5.60;99.90
47520;DHT22;33252;48.122;11.538;2023-12-20T05:30:40;5.50;99.90
47520;DHT22;33252;48.122;11.538;2023-12-20T05:33:05;5.40;99.90
47520;DHT22;33252;48.122;11.538;2023-12-20T05:35:31;5.40;99.90
47520;DHT22;33252;48.122;11.538;2023-12-20T05:37:56;5.30;99.90
47520;DHT22;33252;48.122;11.538;2023-12-20T05:40:22;5.30;99.90
47520;DHT22;33252;48.122;11.538;2023-12-20T05:42:47;5.30;99.90
47520;DHT22;33252;48.122;11.538;2023-12-20T05:45:14;5.30;99.90
47520;DHT22;33252;48.122;11.538;2023-12-20T05:47:40;5.20;99.90
47520;DHT22;33252;48.122;11.538;2023-12-20T05:50:06;5.20;99.90
47520;DHT22;33252;48.122;11.538;2023-12-20T05:52:31;5.10;99.90
47520;DHT22;33252;48.122;11.538;2023-12-20T05:54:57;5.20;99.90
47520;DHT22;33252;48.122;11.538;2023-12-20T05:57:26;5.10;99.90
47520;DHT22;33252;48.122;11.538;2023-12-20T05:59:52;5.00;99.90
47520;DHT22;33252;48.122;11.538;2023-12-20T06:02:18;5.00;99.90
47520;DHT22;33252;48.122;11.538;2023-12-20T06:04:43;5.00;99.90
47520;DHT22;33252;48.122;11.538;2023-12-20T06:07:12;5.00;99.90
47520;DHT22;33252;48.122;11.538;2023-12-20T06:09:38;5.00;99.90
47520;DHT22;33252;48.122;11.538;2023-12-20T06:12:03;4.80;99.90
47520;DHT22;33252;48.122;11.538;2023-12-20T06:14:29;4.90;99.90
47520;DHT22;33252;48.122;11.538;2023-12-20T06:16:56;4.80;99.90
47520;DHT22;33252;48.122;11.538;2023-12-20T06:19:21;4.80;99.90
47520;DHT22;33252;48.122;11.538;2023-12-20T06:21:47;4.90;99.90
47520;DHT22;33252;48.122;11.538;2023-12-20T06:24:13;4.80;99.90
47520;DHT22;33252;48.122;11.538;2023-12-20T06:26:38;4.70;99.90
47520;DHT22;33252;48.122;11.538;2023-12-20T06:29:04;4.70;99.90
47520;DHT22;33252;48.122;11.538;2023-12-20T06:31:29;4.70;99.90
47520;DHT22;33252;48.122;11.538;2023-12-20T06:33:55;4.60;99.90
47520;DHT22;33252;48.122;11.538;2023-12-20T06:36:23;4.50;99.90
47520;DHT22;33252;48.122;11.538;2023-12-20T06:38:49;4.60;99.90
47520;DHT22;33252;48.122;11.538;2023-12-20T06:41:15;4.50;99.90
47520;DHT22;33252;48.122;11.538;2023-12-20T06:43:42;4.50;99.90
47520;DHT22;33252;48.122;11.538;2023-12-20T06:46:07;4.50;99.90
47520;DHT22;33252;48.122;11.538;2023-12-20T06:48:34;4.40;99.90
47520;DHT22;33252;48.122;11.538;2023-12-20T06:51:00;4.40;99.90
47520;DHT22;33252;48.122;11.538;2023-12-20T06:53:27;4.30;99.90
47520;DHT22;33252;48.122;11.538;2023-12-20T06:55:53;4.30;99.90
47520;DHT22;33252;48.122;11.538;2023-12-20T06:58:18;4.30;99.90
47520;DHT22;33252;48.122;11.538;2023-12-20T07:00:44;4.40;99.90
47520;DHT22;33252;48.122;11.538;2023-12-20T07:03:09;4.30;99.90
47520;DHT22;33252;48.122;11.538;2023-12-20T07:05:35;4.30;99.90
47520;DHT22;33252;48.122;11.538;2023-12-20T07:08:00;4.20;99.90
47520;DHT22;33252;48.122;11.538;2023-12-20T07:10:26;4.20;99.90
47520;DHT22;33252;48.122;11.538;2023-12-20T07:12:51;4.20;99.90
47520;DHT22;33252;48.122;11.538;2023-12-20T07:15:17;4.20;99.90
47520;DHT22;33252;48.122;11.538;2023-12-20T07:17:43;4.20;99.90
47520;DHT22;33252;48.122;11.538;2023-12-20T07:20:09;4.20;99.90
47520;DHT22;33252;48.122;11.538;2023-12-20T07:22:36;4.30;99.90
47520;DHT22;33252;48.122;11.538;2023-12-20T07:25:02;4.30;99.90
47520;DHT22;33252;48.122;11.538;2023-12-20T07:27:28;4.20;99.90
47520;DHT22;33252;48.122;11.538;2023-12-20T07:29:54;4.30;99.90
47520;DHT22;33252;48.122;11.538;2023-12-20T07:32:20;4.30;99.90
47520;DHT22;33252;48.122;11.538;2023-12-20T07:34:45;4.30;99.90
47520;DHT22;33252;48.122;11.538;2023-12-20T07:37:11;4.30;99.90
47520;DHT22;33252;48.122;11.538;2023-12-20T07:39:38;4.40;99.90
47520;DHT22;33252;48.122;11.538;2023-12-20T07:42:05;4.30;99.90
47520;DHT22;33252;48.122;11.538;2023-12-20T07:44:31;4.20;99.90
47520;DHT22;33252;48.122;11.538;2023-12-20T07:46:56;4.20;99.90
47520;DHT22;33252;48.122;11.538;2023-12-20T07:49:23;4.20;99.90
47520;DHT22;33252;48.122;11.538;2023-12-20T07:51:48;4.30;99.90
47520;DHT22;33252;48.122;11.538;2023-12-20T07:54:15;4.30;99.90
47520;DHT22;33252;48.122;11.538;2023-12-20T07:56:41;4.30;99.90
47520;DHT22;33252;48.122;11.538;2023-12-20T07:59:06;4.40;99.90
47520;DHT22;33252;48.122;11.538;2023-12-20T08:01:32;4.40;99.90
47520;DHT22;33252;48.122;11.538;2023-12-20T08:03:57;4.30;99.90
47520;DHT22;33252;48.122;11.538;2023-12-20T08:06:23;4.30;99.90
47520;DHT22;33252;48.122;11.538;2023-12-20T08:08:49;4.30;99.90
47520;DHT22;33252;48.122;11.538;2023-12-20T08:11:14;4.30;99.90
47520;DHT22;33252;48.122;11.538;2023-12-20T08:13:40;4.40;99.90
47520;DHT22;33252;48.122;11.538;2023-12-20T08:16:05;4.30;99.90
47520;DHT22;33252;48.122;11.538;2023-12-20T08:18:31;4.20;99.90
47520;DHT22;33252;48.122;11.538;2023-12-20T08:20:56;4.20;99.90
47520;DHT22;33252;48.122;11.538;2023-12-20T08:23:22;4.20;99.90
47520;DHT22;33252;48.122;11.538;2023-12-20T08:25:47;4.20;99.90
47520;DHT22;33252;48.122;11.538;2023-12-20T08:28:13;4.20;99.90
47520;DHT22;33252;48.122;11.538;2023-12-20T08:30:39;4.10;99.90
47520;DHT22;33252;48.122;11.538;2023-12-20T08:33:05;4.10;99.90
47520;DHT22;33252;48.122;11.538;2023-12-20T08:35:33;4.20;99.90
47520;DHT22;33252;48.122;11.538;2023-12-20T08:37:58;4.30;99.90
47520;DHT22;33252;48.122;11.538;2023-12-20T08:40:24;4.20;99.90
47520;DHT22;33252;48.122;11.538;2023-12-20T08:42:49;4.10;99.90
47520;DHT22;33252;48.122;11.538;2023-12-20T08:45:15;4.20;99.90
47520;DHT22;33252;48.122;11.538;2023-12-20T08:47:40;4.30;99.90
47520;DHT22;33252;48.122;11.538;2023-12-20T08:50:07;4.30;99.90
47520;DHT22;33252;48.122;11.538;2023-12-20T08:52:32;4.30;99.90
47520;DHT22;33252;48.122;11.538;2023-12-20T08:54:58;4.30;99.90
47520;DHT22;33252;48.122;11.538;2023-12-20T08:57:24;4.40;99.90
47520;DHT22;33252;48.122;11.538;2023-12-20T08:59:50;4.30;99.90
47520;DHT22;33252;48.122;11.538;2023-12-20T09:02:16;4.30;99.90
47520;DHT22;33252;48.122;11.538;2023-12-20T09:04:42;4.30;99.90
47520;DHT22;33252;48.122;11.538;2023-12-20T09:07:24;4.30;99.90
47520;DHT22;33252;48.122;11.538;2023-12-20T09:09:50;4.40;99.90
47520;DHT22;33252;48.122;11.538;2023-12-20T09:12:18;4.40;99.90
47520;DHT22;33252;48.122;11.538;2023-12-20T09:14:44;4.40;99.90
47520;DHT22;33252;48.122;11.538;2023-12-20T09:17:09;4.40;99.90
47520;DHT22;33252;48.122;11.538;2023-12-20T09:19:36;4.50;99.90
47520;DHT22;33252;48.122;11.538;2023-12-20T09:22:02;4.50;99.90
47520;DHT22;33252;48.122;11.538;2023-12-20T09:24:28;4.50;99.90
47520;DHT22;33252;48.122;11.538;2023-12-20T09:26:53;4.50;99.90
47520;DHT22;33252;48.122;11.538;2023-12-20T09:29:19;4.60;99.90
47520;DHT22;33252;48.122;11.538;2023-12-20T09:31:44;4.50;99.90
47520;DHT22;33252;48.122;11.538;2023-12-20T09:34:11;4.50;99.90
47520;DHT22;33252;48.122;11.538;2023-12-20T09:36:37;4.50;99.90
47520;DHT22;33252;48.122;11.538;2023-12-20T09:39:06;4.60;99.90
47520;DHT22;33252;48.122;11.538;2023-12-20T09:41:33;4.70;99.90
47520;DHT22;33252;48.122;11.538;2023-12-20T09:44:03;4.50;99.90
47520;DHT22;33252;48.122;11.538;2023-12-20T09:46:29;4.50;99.90
47520;DHT22;33252;48.122;11.538;2023-12-20T09:49:00;4.50;99.90
47520;DHT22;33252;48.122;11.538;2023-12-20T09:51:27;4.50;99.90
47520;DHT22;33252;48.122;11.538;2023-12-20T09:53:54;4.40;99.90
47520;DHT22;33252;48.122;11.538;2023-12-20T09:56:20;4.50;99.90
47520;DHT22;33252;48.122;11.538;2023-12-20T09:58:46;4.60;99.90
47520;DHT22;33252;48.122;11.538;2023-12-20T10:01:12;4.60;99.90
47520;DHT22;33252;48.122;11.538;2023-12-20T10:03:39;4.60;99.90
47520;DHT22;33252;48.122;11.538;2023-12-20T10:06:06;4.50;99.90
47520;DHT22;33252;48.122;11.538;2023-12-20T10:08:32;4.60;99.90
47520;DHT22;33252;48.122;11.538;2023-12-20T10:10:58;4.60;99.90
47520;DHT22;33252;48.122;11.538;2023-12-20T10:13:28;4.60;99.90
47520;DHT22;33252;48.122;11.538;2023-12-20T10:15:55;4.60;99.90
47520;DHT22;33252;48.122;11.538;2023-12-20T10:18:20;4.60;99.90
47520;DHT22;33252;48.122;11.538;2023-12-20T10:20:46;4.70;99.90
47520;DHT22;33252;48.122;11.538;2023-12-20T10:23:12;4.80;99.90
47520;DHT22;33252;48.122;11.538;2023-12-20T10:25:39;4.70;99.90
47520;DHT22;33252;48.122;11.538;2023-12-20T10:28:15;4.70;99.90
47520;DHT22;33252;48.122;11.538;2023-12-20T10:30:44;4.80;99.90
47520;DHT22;33252;48.122;11.538;2023-12-20T10:33:10;4.80;99.90
47520;DHT22;33252;48.122;11.538;2023-12-20T10:35:36;4.70;99.90
47520;DHT22;33252;48.122;11.538;2023-12-20T10:38:04;4.60;99.90
47520;DHT22;33252;48.122;11.538;2023-12-20T10:40:31;4.80;99.90
47520;DHT22;33252;48.122;11.538;2023-12-20T10:42:59;4.60;99.90
47520;DHT22;33252;48.122;11.538;2023-12-20T10:45:26;4.70;99.90
47520;DHT22;33252;48.122;11.538;2023-12-20T10:47:52;4.70;99.90
47520;DHT22;33252;48.122;11.538;2023-12-20T10:50:19;4.80;99.90
47520;DHT22;33252;48.122;11.538;2023-12-20T10:52:46;4.70;99.90
47520;DHT22;33252;48.122;11.538;2023-12-20T10:55:12;4.80;99.90
47520;DHT22;33252;48.122;11.538;2023-12-20T10:57:38;4.90;99.90
47520;DHT22;33252;48.122;11.538;2023-12-20T11:00:06;4.80;99.90
47520;DHT22;33252;48.122;11.538;2023-12-20T11:02:39;4.80;99.90
47520;DHT22;33252;48.122;11.538;2023-12-20T11:05:35;4.80;99.90
47520;DHT22;33252;48.122;11.538;2023-12-20T11:08:08;4.80;99.90
47520;DHT22;33252;48.122;11.538;2023-12-20T11:10:58;4.90;99.90
47520;DHT22;33252;48.122;11.538;2023-12-20T11:13:31;4.70;99.90
47520;DHT22;33252;48.122;11.538;2023-12-20T11:15:58;4.80;99.90
47520;DHT22;33252;48.122;11.538;2023-12-20T11:18:30;4.80;99.90
47520;DHT22;33252;48.122;11.538;2023-12-20T11:21:09;4.80;99.90
47520;DHT22;33252;48.122;11.538;2023-12-20T11:23:36;4.80;99.90
47520;DHT22;33252;48.122;11.538;2023-12-20T11:26:02;4.70;99.90
47520;DHT22;33252;48.122;11.538;2023-12-20T11:28:28;4.80;99.90
47520;DHT22;33252;48.122;11.538;2023-12-20T11:30:58;4.80;99.90
47520;DHT22;33252;48.122;11.538;2023-12-20T11:33:30;4.90;99.90
47520;DHT22;33252;48.122;11.538;2023-12-20T11:35:57;4.90;99.90
47520;DHT22;33252;48.122;11.538;2023-12-20T11:38:23;5.00;99.90
47520;DHT22;33252;48.122;11.538;2023-12-20T11:40:49;5.00;99.90
47520;DHT22;33252;48.122;11.538;2023-12-20T11:43:38;5.00;99.90
47520;DHT22;33252;48.122;11.538;2023-12-20T11:46:08;5.00;99.90
47520;DHT22;33252;48.122;11.538;2023-12-20T11:48:38;5.10;99.90
47520;DHT22;33252;48.122;11.538;2023-12-20T11:51:12;5.20;99.90
47520;DHT22;33252;48.122;11.538;2023-12-20T11:53:41;5.20;99.90
47520;DHT22;33252;48.122;11.538;2023-12-20T11:56:10;5.20;99.90
47520;DHT22;33252;48.122;11.538;2023-12-20T11:58:35;5.10;99.90
47520;DHT22;33252;48.122;11.538;2023-12-20T12:01:01;5.20;99.90
47520;DHT22;33252;48.122;11.538;2023-12-20T12:03:30;5.30;99.90
47520;DHT22;33252;48.122;11.538;2023-12-20T12:05:55;5.40;99.90
47520;DHT22;33252;48.122;11.538;2023-12-20T12:08:21;5.30;99.90
47520;DHT22;33252;48.122;11.538;2023-12-20T12:10:46;5.40;99.90
47520;DHT22;33252;48.122;11.538;2023-12-20T12:13:12;5.40;99.90
47520;DHT22;33252;48.122;11.538;2023-12-20T12:15:39;5.50;99.90
47520;DHT22;33252;48.122;11.538;2023-12-20T12:18:07;5.40;99.90
47520;DHT22;33252;48.122;11.538;2023-12-20T12:20:33;5.50;99.90
47520;DHT22;33252;48.122;11.538;2023-12-20T12:22:59;5.50;99.90
47520;DHT22;33252;48.122;11.538;2023-12-20T12:25:26;5.50;99.90
47520;DHT22;33252;48.122;11.538;2023-12-20T12:27:51;5.50;99.90
47520;DHT22;33252;48.122;11.538;2023-12-20T12:30:17;5.60;99.90
47520;DHT22;33252;48.122;11.538;2023-12-20T12:32:44;5.60;99.90
47520;DHT22;33252;48.122;11.538;2023-12-20T12:35:10;5.50;99.90
47520;DHT22;33252;48.122;11.538;2023-12-20T12:37:38;5.50;99.90
47520;DHT22;33252;48.122;11.538;2023-12-20T12:40:10;5.40;99.90
47520;DHT22;33252;48.122;11.538;2023-12-20T12:42:37;5.50;99.90
47520;DHT22;33252;48.122;11.538;2023-12-20T12:45:02;5.50;99.90
47520;DHT22;33252;48.122;11.538;2023-12-20T12:47:28;5.50;99.90
47520;DHT22;33252;48.122;11.538;2023-12-20T12:49:54;5.50;99.90
47520;DHT22;33252;48.122;11.538;2023-12-20T12:52:22;5.50;99.90
47520;DHT22;33252;48.122;11.538;2023-12-20T12:54:48;5.50;99.90
47520;DHT22;33252;48.122;11.538;2023-12-20T12:57:14;5.40;99.90
47520;DHT22;33252;48.122;11.538;2023-12-20T12:59:42;5.30;99.90
47520;DHT22;33252;48.122;11.538;2023-12-20T13:02:07;5.30;99.90
47520;DHT22;33252;48.122;11.538;2023-12-20T13:04:33;5.40;99.90
47520;DHT22;33252;48.122;11.538;2023-12-20T13:06:59;5.30;99.90
47520;DHT22;33252;48.122;11.538;2023-12-20T13:09:24;5.30;99.90
47520;DHT22;33252;48.122;11.538;2023-12-20T13:11:50;5.30;99.90
47520;DHT22;33252;48.122;11.538;2023-12-20T13:14:15;5.10;99.90
47520;DHT22;33252;48.122;11.538;2023-12-20T13:16:42;4.90;99.90
47520;DHT22;33252;48.122;11.538;2023-12-20T13:19:08;4.60;99.90
47520;DHT22;33252;48.122;11.538;2023-12-20T13:21:33;4.60;99.90
47520;DHT22;33252;48.122;11.538;2023-12-20T13:23:59;4.60;99.90
47520;DHT22;33252;48.122;11.538;2023-12-20T13:26:24;4.50;99.90
47520;DHT22;33252;48.122;11.538;2023-12-20T13:28:50;4.30;99.90
47520;DHT22;33252;48.122;11.538;2023-12-20T13:31:15;4.40;99.90
47520;DHT22;33252;48.122;11.538;2023-12-20T13:33:41;4.40;99.90
47520;DHT22;33252;48.122;11.538;2023-12-20T13:36:07;4.40;99.90
47520;DHT22;33252;48.122;11.538;2023-12-20T13:38:32;4.30;99.90
47520;DHT22;33252;48.122;11.538;2023-12-20T13:40:58;4.30;99.90
47520;DHT22;33252;48.122;11.538;2023-12-20T13:43:24;4.30;99.90
47520;DHT22;33252;48.122;11.538;2023-12-20T13:45:50;4.30;99.90
47520;DHT22;33252;48.122;11.538;2023-12-20T13:48:16;4.30;99.90
47520;DHT22;33252;48.122;11.538;2023-12-20T13:50:41;4.20;99.90
47520;DHT22;33252;48.122;11.538;2023-12-20T13:53:07;4.20;99.90
47520;DHT22;33252;48.122;11.538;2023-12-20T13:55:32;4.30;99.90
47520;DHT22;33252;48.122;11.538;2023-12-20T13:57:58;4.40;99.90
47520;DHT22;33252;48.122;11.538;2023-12-20T14:00:24;4.30;99.90
47520;DHT22;33252;48.122;11.538;2023-12-20T14:02:49;4.40;99.90
47520;DHT22;33252;48.122;11.538;2023-12-20T14:05:15;4.40;99.90
47520;DHT22;33252;48.122;11.538;2023-12-20T14:07:43;4.50;99.90
47520;DHT22;33252;48.122;11.538;2023-12-20T14:10:13;4.50;99.90
47520;DHT22;33252;48.122;11.538;2023-12-20T14:12:39;4.50;99.90
47520;DHT22;33252;48.122;11.538;2023-12-20T14:15:05;4.40;99.90
47520;DHT22;33252;48.122;11.538;2023-12-20T14:17:37;4.40;99.90
47520;DHT22;33252;48.122;11.538;2023-12-20T14:20:03;4.40;99.90
47520;DHT22;33252;48.122;11.538;2023-12-20T14:22:28;4.50;99.90
47520;DHT22;33252;48.122;11.538;2023-12-20T14:24:54;4.50;99.90
47520;DHT22;33252;48.122;11.538;2023-12-20T14:27:20;4.40;99.90
47520;DHT22;33252;48.122;11.538;2023-12-20T14:29:48;4.40;99.90
47520;DHT22;33252;48.122;11.538;2023-12-20T14:32:14;4.40;99.90
47520;DHT22;33252;48.122;11.538;2023-12-20T14:34:40;4.40;99.90
47520;DHT22;33252;48.122;11.538;2023-12-20T14:37:06;4.40;99.90
47520;DHT22;33252;48.122;11.538;2023-12-20T14:39:31;4.40;99.90
47520;DHT22;33252;48.122;11.538;2023-12-20T14:41:57;4.50;99.90
47520;DHT22;33252;48.122;11.538;2023-12-20T14:44:23;4.30;99.90
47520;DHT22;33252;48.122;11.538;2023-12-20T14:46:48;4.30;99.90
47520;DHT22;33252;48.122;11.538;2023-12-20T14:49:13;4.30;99.90
47520;DHT22;33252;48.122;11.538;2023-12-20T14:51:39;4.30;99.90
47520;DHT22;33252;48.122;11.538;2023-12-20T14:54:05;4.30;99.90
47520;DHT22;33252;48.122;11.538;2023-12-20T14:56:35;4.40;99.90
47520;DHT22;33252;48.122;11.538;2023-12-20T14:59:01;4.40;99.90
47520;DHT22;33252;48.122;11.538;2023-12-20T15:01:26;4.30;99.90
47520;DHT22;33252;48.122;11.538;2023-12-20T15:03:52;4.30;99.90
47520;DHT22;33252;48.122;11.538;2023-12-20T15:06:18;4.30;99.90
47520;DHT22;33252;48.122;11.538;2023-12-20T15:08:45;4.30;99.90
47520;DHT22;33252;48.122;11.538;2023-12-20T15:11:11;4.30;99.90
47520;DHT22;33252;48.122;11.538;2023-12-20T15:13:37;4.30;99.90
47520;DHT22;33252;48.122;11.538;2023-12-20T15:16:03;4.20;99.90
47520;DHT22;33252;48.122;11.538;2023-12-20T15:18:30;4.30;99.90
47520;DHT22;33252;48.122;11.538;2023-12-20T15:20:57;4.20;99.90
47520;DHT22;33252;48.122;11.538;2023-12-20T15:23:22;4.20;99.90